Home   Weather   Australia   Perth   Past weeks
Flag for Australia

Past Weather in Perth, Western Australia, Australia — Yesterday and Last 2 Weeks

Currently: 68 °F. Sunny. (Weather station: Belmont Perth Airport, Australia). See more current weather

Past Weather in Perth — Graph

°F

Perth Temperature Yesterday

Maximum temperature yesterday: 75 °F (at 2:00 pm)
Minimum temperature yesterday: 52 °F (at 6:30 am)
Average temperature yesterday: 65 °F

High & Low Weather Summary for the Past Weeks

  Temperature Humidity Pressure
High 79 °F (Apr 26, 1:00 pm) 100% (Apr 26, 4:00 am) 30.45 "Hg (Apr 26, 4:00 am)
Low 37 °F (May 2, 5:00 am) 30% (Apr 26, 3:00 pm) 29.92 "Hg (Apr 27, 2:00 pm)
Average 60 °F 69% 30.19 "Hg
* Reported Apr 24 10:00 am — May 9 10:30 am, Perth. Weather by CustomWeather, © 2026

Note: Actual official high and low records may vary slightly from our data, if they occured in-between our weather recording intervals... More about our weather records

Perth Weather History for the Previous 24 Hours

Scroll right to see more
  Conditions Comfort    
Time   Temp Weather Wind   Humidity Barometer Visibility
10:30 am
Sat, May 9
66 °F Sunny. 16 mph 37% 30.33 "Hg 10 mi
10:00 am 66 °F Sunny. 18 mph 40% 30.33 "Hg 10 mi
9:30 am 64 °F Sunny. 16 mph 46% 30.36 "Hg 10 mi
9:00 am 63 °F Sunny. 14 mph 45% 30.36 "Hg 10 mi
8:30 am 61 °F Sunny. 14 mph 48% 30.36 "Hg 10 mi
8:00 am 59 °F Sunny. 13 mph 51% 30.36 "Hg 10 mi
7:30 am 59 °F Sunny. 12 mph 51% 30.33 "Hg 10 mi
7:00 am 57 °F Sunny. 14 mph 55% 30.33 "Hg 10 mi
6:30 am 59 °F Clear. 12 mph 51% 30.33 "Hg 10 mi
6:00 am 59 °F Clear. 10 mph 51% 30.33 "Hg 10 mi
5:30 am 59 °F Clear. 13 mph 51% 30.33 "Hg N/A
5:00 am 59 °F Clear. 14 mph 51% 30.30 "Hg N/A
4:30 am 61 °F Clear. 14 mph 48% 30.30 "Hg N/A
4:00 am 61 °F Clear. 16 mph 48% 30.30 "Hg N/A
3:30 am 61 °F Clear. 13 mph 45% 30.30 "Hg N/A
3:00 am 61 °F Clear. 16 mph 45% 30.30 "Hg N/A
2:30 am 61 °F Clear. 16 mph 48% 30.30 "Hg N/A
2:00 am 61 °F Clear. 16 mph 48% 30.30 "Hg N/A
1:30 am 61 °F Clear. 16 mph 45% 30.30 "Hg N/A
1:00 am 63 °F Clear. 17 mph 42% 30.30 "Hg N/A
12:30 am 63 °F Clear. 17 mph 42% 30.30 "Hg N/A
12:00 am 63 °F Clear. 17 mph 42% 30.30 "Hg 10 mi
11:30 pm
Fri, May 8
63 °F Clear. 17 mph 42% 30.30 "Hg 10 mi
11:00 pm 64 °F Clear. 13 mph 37% 30.30 "Hg 10 mi
10:30 pm 64 °F Clear. 10 mph 40% 30.30 "Hg 10 mi
10:00 pm 64 °F Clear. 13 mph 40% 30.30 "Hg 10 mi
9:30 pm 63 °F Clear. 7 mph 45% 30.30 "Hg 10 mi
9:00 pm 63 °F Clear. 6 mph 45% 30.30 "Hg 10 mi
8:30 pm 64 °F Clear. 8 mph 46% 30.30 "Hg 10 mi
8:00 pm 63 °F Clear. 10 mph 49% 30.30 "Hg 10 mi
7:30 pm 64 °F Clear. 10 mph 46% 30.30 "Hg 10 mi
7:00 pm 64 °F Clear. 8 mph 46% 30.30 "Hg 10 mi
6:30 pm 66 °F Clear. 10 mph 43% 30.30 "Hg 10 mi
6:00 pm 66 °F Clear. 10 mph 43% 30.30 "Hg 10 mi
5:30 pm 70 °F Sunny. 12 mph 38% 30.27 "Hg 10 mi
5:00 pm 72 °F Sunny. 17 mph 36% 30.27 "Hg 10 mi
4:30 pm 73 °F Sunny. 20 mph 36% 30.27 "Hg 10 mi
4:00 pm 73 °F Sunny. 18 mph 36% 30.27 "Hg 10 mi
3:57 pm 73 °F Sunny. 17 mph 36% 30.27 "Hg 10 mi
3:30 pm 73 °F Sunny. 18 mph 33% 30.27 "Hg 10 mi
3:00 pm 75 °F Sunny. 20 mph 34% 30.27 "Hg 10 mi
2:30 pm 75 °F Sunny. 15 mph 34% 30.27 "Hg 10 mi
2:00 pm 75 °F Sunny. 16 mph 34% 30.30 "Hg 10 mi
1:30 pm 73 °F Sunny. 16 mph 38% 30.30 "Hg 10 mi
1:00 pm 73 °F Sunny. 15 mph 41% 30.30 "Hg 10 mi
12:30 pm 72 °F Sunny. 16 mph 44% 30.33 "Hg 10 mi
12:00 pm 72 °F Passing clouds. 18 mph 44% 30.36 "Hg N/A
11:30 am 70 °F Passing clouds. 20 mph 46% 30.36 "Hg N/A
11:00 am 70 °F Passing clouds. 21 mph 46% 30.39 "Hg N/A
Weather by CustomWeather, © 2026

See weather overview